Time;durP1;ratioP1;P1;durP2;ratioP2;P2;SDS_P1;SDS_P2;PMS_P1;PMS_P2;Temp;Humidity;BMP_temperature;BMP_pressure;BME280_temperature;BME280_humidity;BME280_pressure;Samples;Min_cycle;Max_cycle;Signal;HPM_P1;HPM_P2
2022/06/10 00:00:16;;;;;;;5.80;3.30;;;;;;;13.97;72.20;101990.38;4967345;28;20033;-89
2022/06/10 00:02:43;;;;;;;7.50;3.88;;;;;;;14.00;71.76;101987.63;4949654;28;20504;-89
2022/06/10 00:05:14;;;;;;;7.47;3.40;;;;;;;14.00;71.77;101990.28;4967063;28;20097;-89
2022/06/10 00:07:40;;;;;;;7.47;3.67;;;;;;;13.82;72.48;101983.81;4965211;28;20038;-89
2022/06/10 00:10:07;;;;;;;7.60;3.53;;;;;;;13.70;73.27;101976.25;4953827;28;20034;-89
2022/06/10 00:12:32;;;;;;;7.97;3.90;;;;;;;13.67;73.30;101985.22;4948232;28;20569;-89
2022/06/10 00:14:57;;;;;;;9.05;3.58;;;;;;;13.67;73.74;101987.88;4970899;28;20031;-89
2022/06/10 00:17:23;;;;;;;9.55;3.90;;;;;;;13.60;73.87;101980.16;4971286;28;20082;-89
2022/06/10 00:19:48;;;;;;;9.13;3.50;;;;;;;13.61;73.91;101981.91;4971203;28;20035;-90
2022/06/10 00:22:13;;;;;;;9.80;4.05;;;;;;;13.49;73.70;101986.72;4965506;28;20035;-89
2022/06/10 00:24:39;;;;;;;6.88;3.75;;;;;;;13.54;73.71;101983.91;4970146;28;20023;-89
2022/06/10 00:27:04;;;;;;;9.00;3.63;;;;;;;13.57;73.12;101981.16;4949405;28;20062;-89
2022/06/10 00:29:31;;;;;;;10.43;4.45;;;;;;;13.58;73.40;101979.38;4965735;28;20051;-89
2022/06/10 00:31:57;;;;;;;8.52;4.10;;;;;;;13.60;73.03;101983.69;4953837;28;20023;-89
2022/06/10 00:34:22;;;;;;;7.75;4.00;;;;;;;13.61;73.21;101988.06;4973177;28;20023;-89
2022/06/10 00:36:48;;;;;;;7.38;4.20;;;;;;;13.57;73.47;101985.56;4953393;28;20522;-89
2022/06/10 00:39:13;;;;;;;9.27;4.20;;;;;;;13.58;72.79;101982.03;4968352;28;20384;-88
2022/06/10 00:41:43;;;;;;;6.75;3.97;;;;;;;13.71;72.80;101981.53;4968067;28;20100;-89
2022/06/10 00:44:35;;;;;;;6.75;3.97;;;;;;;13.79;71.36;101976.81;4948455;28;20031;-89
2022/06/10 00:47:04;;;;;;;7.82;4.18;;;;;;;13.76;73.18;101978.72;4976593;28;20038;-89
2022/06/10 00:49:31;;;;;;;8.68;4.22;;;;;;;13.64;73.40;101973.81;4971846;28;20183;-89
2022/06/10 00:51:57;;;;;;;8.52;4.50;;;;;;;13.65;73.66;101971.09;4971692;28;20523;-89
2022/06/10 00:54:28;;;;;;;13.57;5.05;;;;;;;13.69;73.42;101975.41;4967141;28;20474;-88
2022/06/10 00:57:06;;;;;;;9.80;4.57;;;;;;;13.78;73.13;101979.53;4950119;28;20030;-88
2022/06/10 00:59:42;;;;;;;9.10;4.55;;;;;;;13.64;73.68;101955.22;4969599;28;20978;-88
2022/06/10 01:02:11;;;;;;;11.43;4.25;;;;;;;13.77;72.58;101975.13;4970361;28;20471;-88
2022/06/10 01:04:40;;;;;;;5.30;3.60;;;;;;;13.84;71.86;101970.47;4952520;28;20027;-88
2022/06/10 01:07:06;;;;;;;12.80;4.47;;;;;;;13.94;71.81;101974.53;4953430;28;20414;-88
2022/06/10 01:09:33;;;;;;;6.70;3.78;;;;;;;13.97;72.40;101971.75;4963911;28;20030;-88
2022/06/10 01:12:21;;;;;;;8.38;4.35;;;;;;;14.04;71.91;101976.81;4966876;28;20035;-88
2022/06/10 01:15:16;;;;;;;9.05;4.03;;;;;;;14.10;72.18;101975.72;4953553;28;20043;-88
2022/06/10 01:17:59;;;;;;;6.53;3.78;;;;;;;14.15;72.66;101971.09;4953507;28;20138;-88
2022/06/10 01:20:51;;;;;;;10.63;4.50;;;;;;;14.16;72.60;101974.63;4969534;28;20395;-88
2022/06/10 01:23:37;;;;;;;7.90;3.88;;;;;;;14.12;73.11;101973.84;4948361;28;20035;-88
2022/06/10 01:26:15;;;;;;;10.25;3.55;;;;;;;14.22;72.12;101979.69;4967256;28;20074;-89
2022/06/10 01:28:52;;;;;;;8.35;4.07;;;;;;;14.23;73.08;101979.66;4946186;28;20138;-89
2022/06/10 01:31:43;;;;;;;8.07;4.05;;;;;;;14.17;72.42;101973.69;4948916;28;20024;-90
2022/06/10 01:34:24;;;;;;;12.82;4.03;;;;;;;14.35;71.32;101977.44;4947699;28;20047;-89
2022/06/10 01:36:56;;;;;;;6.97;3.83;;;;;;;14.34;72.94;101975.72;4951522;29;20038;-89
2022/06/10 01:39:30;;;;;;;9.68;3.78;;;;;;;14.34;72.47;101975.72;4948845;28;20054;-89
2022/06/10 01:42:28;;;;;;;9.07;3.58;;;;;;;14.47;71.69;101980.53;4947781;28;20035;-90
2022/06/10 01:45:11;;;;;;;6.53;3.67;;;;;;;14.48;72.10;101974.31;4947803;28;20501;-90
2022/06/10 01:47:41;;;;;;;8.18;3.38;;;;;;;14.44;72.31;101975.31;4948319;28;20042;-90
2022/06/10 01:50:33;;;;;;;6.15;3.17;;;;;;;14.50;71.10;101972.47;4947881;28;20049;-90
2022/06/10 01:53:13;;;;;;;9.95;3.35;;;;;;;14.54;72.01;101974.06;4944597;28;20410;-90
2022/06/10 01:55:52;;;;;;;6.63;3.08;;;;;;;14.58;71.22;101972.16;4942917;28;20074;-90
2022/06/10 01:58:35;;;;;;;12.55;3.95;;;;;;;14.61;72.21;101981.81;4943953;28;20034;-90
2022/06/10 02:01:06;;;;;;;6.88;3.47;;;;;;;14.58;72.21;101966.81;4944860;28;20066;-89
2022/06/10 02:03:50;;;;;;;11.18;3.35;;;;;;;14.65;71.94;101965.69;4946889;28;20386;-90
2022/06/10 02:06:39;;;;;;;6.53;2.92;;;;;;;14.81;71.51;101981.91;4950834;29;20827;-90
2022/06/10 02:09:09;;;;;;;10.43;3.33;;;;;;;14.80;70.52;101981.03;4947464;28;20514;-90
2022/06/10 02:11:40;;;;;;;6.57;3.42;;;;;;;14.79;72.09;101975.78;4945578;29;20389;-90
2022/06/10 02:14:20;;;;;;;9.85;3.10;;;;;;;14.80;71.39;101977.50;4949212;28;20023;-90
2022/06/10 02:16:49;;;;;;;7.90;3.05;;;;;;;14.81;71.65;101973.91;4949732;28;20424;-90
2022/06/10 02:19:18;;;;;;;8.77;3.00;;;;;;;14.83;71.54;101977.41;4949337;28;20051;-90
2022/06/10 02:21:53;;;;;;;8.68;2.85;;;;;;;14.91;71.20;101975.28;4946828;28;20035;-90
2022/06/10 02:24:23;;;;;;;7.50;2.80;;;;;;;14.92;70.97;101974.38;4946638;28;20050;-90
2022/06/10 02:26:50;;;;;;;7.55;3.22;;;;;;;14.93;73.38;101983.22;4947991;28;20039;-90
2022/06/10 02:29:24;;;;;;;8.05;3.20;;;;;;;14.85;70.31;101964.88;4933161;29;20052;-90
2022/06/10 02:31:57;;;;;;;7.47;3.15;;;;;;;14.97;71.17;101984.84;4928962;29;20062;-91
2022/06/10 02:34:23;;;;;;;6.50;2.50;;;;;;;14.92;70.15;101984.13;4922851;29;20115;-91
2022/06/10 02:36:54;;;;;;;11.32;3.35;;;;;;;14.97;70.34;101991.03;4930001;29;20034;-90
2022/06/10 02:39:37;;;;;;;5.73;2.10;;;;;;;15.04;70.38;101981.84;4923487;29;20449;-91
2022/06/10 02:42:19;;;;;;;9.80;2.72;;;;;;;15.09;70.47;101997.63;4925926;29;20035;-90
2022/06/10 02:44:45;;;;;;;;;;;;;;;15.28;69.24;101995.94;4923283;29;20077;-90
2022/06/10 02:47:18;;;;;;;9.57;2.70;;;;;;;15.19;71.06;102001.66;4952572;28;19953;-90
2022/06/10 02:49:44;;;;;;;7.78;2.50;;;;;;;15.17;70.05;101982.22;4928914;29;20303;-91
2022/06/10 02:52:13;;;;;;;10.43;3.30;;;;;;;15.17;69.98;101984.88;4927908;29;20038;-91
2022/06/10 02:54:40;;;;;;;10.05;2.80;;;;;;;15.17;68.84;101976.88;4929466;29;20042;-90
2022/06/10 02:57:15;;;;;;;8.50;2.70;;;;;;;15.22;69.74;101998.00;4928713;29;20387;-91
2022/06/10 03:03:04;;;;;;;11.15;2.80;;;;;;;15.28;69.00;101993.28;4929881;29;20041;-90
2022/06/10 03:05:48;;;;;;;13.27;2.75;;;;;;;15.27;69.10;101988.03;4928067;29;20448;-91
2022/06/10 03:08:32;;;;;;;11.35;2.83;;;;;;;15.26;69.09;101987.16;4928907;29;20491;-90
2022/06/10 03:11:00;;;;;;;7.55;2.78;;;;;;;15.25;69.77;101997.91;4923944;29;20047;-90
2022/06/10 03:13:46;;;;;;;10.48;2.72;;;;;;;15.27;69.46;102001.34;4928251;29;20028;-91
2022/06/10 03:16:42;;;;;;;9.30;2.40;;;;;;;15.29;68.95;101989.72;4928787;29;20063;-91
2022/06/10 03:19:31;;;;;;;7.88;2.60;;;;;;;15.33;69.26;101995.75;4924806;29;22527;-90
2022/06/10 03:22:15;;;;;;;8.63;2.80;;;;;;;15.36;69.18;102005.44;4928511;29;20235;-91
2022/06/10 03:25:05;;;;;;;11.60;2.72;;;;;;;15.37;68.43;102000.03;4928740;29;20035;-91
2022/06/10 03:27:45;;;;;;;7.95;2.63;;;;;;;15.40;68.62;101996.41;4927039;28;20035;-90
2022/06/10 03:30:17;;;;;;;10.15;2.58;;;;;;;15.42;68.09;102000.72;4953485;28;20458;-90
2022/06/10 03:33:29;;;;;;;8.57;2.78;;;;;;;15.52;68.56;102007.38;4941079;28;20471;-90
2022/06/10 03:36:01;;;;;;;7.38;2.50;;;;;;;15.51;69.62;102015.44;4965604;28;20500;-90
2022/06/10 03:38:28;;;;;;;10.80;2.83;;;;;;;15.51;70.67;101997.66;4968924;28;20041;-90
2022/06/10 03:40:56;;;;;;;10.75;2.78;;;;;;;15.60;70.49;102023.06;4950133;28;20394;-90
2022/06/10 03:43:24;;;;;;;7.72;2.40;;;;;;;15.60;69.42;102022.19;4967593;28;20494;-91
2022/06/10 03:46:00;;;;;;;12.45;3.50;;;;;;;15.60;68.77;102009.72;4941340;28;20026;-90
2022/06/10 03:48:28;;;;;;;13.75;3.10;;;;;;;15.62;70.28;102018.56;4949140;28;20114;-90
2022/06/10 03:50:55;;;;;;;9.60;3.17;;;;;;;15.61;69.16;102019.47;4965202;28;20463;-91
2022/06/10 03:53:23;;;;;;;12.15;2.45;;;;;;;15.60;69.09;102022.19;4950330;28;20035;-90
2022/06/10 03:55:48;;;;;;;11.43;3.00;;;;;;;15.53;68.96;102022.47;4952220;28;20121;-90
2022/06/10 03:58:14;;;;;;;10.27;2.78;;;;;;;15.49;69.92;102007.53;4947569;28;20110;-91
2022/06/10 04:00:40;;;;;;;9.75;2.80;;;;;;;15.46;70.29;102014.78;4949794;28;20037;-90
2022/06/10 04:03:05;;;;;;;9.43;2.63;;;;;;;15.37;69.55;102005.38;4957678;28;20477;-91
2022/06/10 04:05:31;;;;;;;12.82;2.65;;;;;;;15.42;70.69;102023.84;4950576;28;20039;-90
2022/06/10 04:07:57;;;;;;;9.07;2.60;;;;;;;15.38;70.56;102017.75;4966058;28;20031;-90
2022/06/10 04:10:24;;;;;;;10.93;2.78;;;;;;;15.42;69.21;102023.84;4944746;28;20125;-90
2022/06/10 04:12:50;;;;;;;10.48;3.08;;;;;;;15.38;69.86;102019.56;4963787;28;20666;-90
2022/06/10 04:15:16;;;;;;;10.00;2.97;;;;;;;15.40;69.85;102020.38;4944764;28;20089;-90
2022/06/10 04:17:47;;;;;;;9.75;2.90;;;;;;;15.51;69.81;102026.97;4960766;28;20066;-90
2022/06/10 04:20:19;;;;;;;8.93;2.60;;;;;;;15.52;69.86;102026.03;4966040;28;20058;-89
2022/06/10 04:22:44;;;;;;;;;;;;;;;15.73;68.25;102036.78;4943105;28;20497;-90
2022/06/10 04:25:10;;;;;;;10.32;2.58;;;;;;;15.65;69.03;102026.44;4948823;28;19925;-90
2022/06/10 04:27:36;;;;;;;11.52;2.50;;;;;;;15.65;69.52;102047.75;4946997;28;20475;-90
2022/06/10 04:30:02;;;;;;;8.48;2.63;;;;;;;15.64;69.60;102037.16;4946757;28;20045;-91
2022/06/10 04:32:28;;;;;;;12.10;2.92;;;;;;;15.70;69.76;102043.09;4948931;28;20510;-90
2022/06/10 04:34:53;;;;;;;11.52;2.38;;;;;;;15.73;69.29;102034.97;4964572;28;20070;-90
2022/06/10 04:37:18;;;;;;;11.20;3.15;;;;;;;15.85;69.79;102040.72;4945216;28;20631;-89
2022/06/10 04:39:44;;;;;;;13.65;3.30;;;;;;;15.81;69.98;102037.31;4967575;28;20054;-90
2022/06/10 04:42:10;;;;;;;8.60;2.63;;;;;;;15.74;70.61;102036.72;4948373;28;20126;-90
2022/06/10 04:44:35;;;;;;;7.85;2.45;;;;;;;15.78;71.52;102035.66;4964547;28;20019;-89
2022/06/10 04:47:02;;;;;;;9.20;2.92;;;;;;;15.81;71.67;102042.66;4947424;28;20027;-89
2022/06/10 04:49:29;;;;;;;11.15;2.67;;;;;;;15.83;71.18;102030.13;4965423;28;20401;-90
2022/06/10 04:51:55;;;;;;;9.73;2.67;;;;;;;15.85;71.00;102043.38;4947375;28;20484;-90
2022/06/10 04:54:20;;;;;;;12.60;3.08;;;;;;;15.88;70.74;102035.25;4965214;28;20261;-90
2022/06/10 04:56:45;;;;;;;13.85;2.92;;;;;;;15.80;70.61;102040.91;4969961;28;20038;-90
2022/06/10 04:59:11;;;;;;;7.20;3.58;;;;;;;15.85;70.94;102040.72;4968238;28;20035;-90
2022/06/10 05:01:36;;;;;;;9.45;2.67;;;;;;;15.86;70.91;102040.66;4945640;28;20094;-90
2022/06/10 05:04:01;;;;;;;9.82;3.20;;;;;;;15.89;69.50;102040.50;4945439;28;20378;-90
2022/06/10 05:06:27;;;;;;;8.48;3.40;;;;;;;15.90;71.03;102030.69;4950856;28;20058;-89
2022/06/10 05:08:52;;;;;;;11.63;3.38;;;;;;;15.92;70.51;102029.72;4954949;28;20545;-90
2022/06/10 05:11:17;;;;;;;12.73;3.35;;;;;;;15.81;70.27;102029.31;4970726;28;20034;-90
2022/06/10 05:13:43;;;;;;;11.30;2.92;;;;;;;15.85;70.39;102035.38;4950561;28;20047;-90
2022/06/10 05:16:09;;;;;;;9.55;2.97;;;;;;;15.90;70.10;102044.03;4947505;28;20470;-90
2022/06/10 05:18:35;;;;;;;10.10;3.22;;;;;;;15.95;70.22;102032.25;4951384;28;20035;-90
2022/06/10 05:21:00;;;;;;;12.73;3.75;;;;;;;15.92;70.46;102024.38;4970174;28;20092;-90
2022/06/10 05:23:26;;;;;;;11.50;3.33;;;;;;;16.03;70.30;102032.78;4949760;28;20479;-90
2022/06/10 05:25:52;;;;;;;10.55;3.10;;;;;;;16.07;70.16;102037.03;4951575;28;20441;-90
2022/06/10 05:28:19;;;;;;;12.07;3.08;;;;;;;16.10;69.65;102033.38;4950533;28;20490;-90
2022/06/10 05:30:45;;;;;;;11.90;2.80;;;;;;;16.06;68.95;102013.09;4964044;28;20543;-90
2022/06/10 05:33:12;;;;;;;11.30;3.35;;;;;;;16.19;69.64;102026.78;4969105;28;20114;-90
2022/06/10 05:35:38;;;;;;;6.65;3.03;;;;;;;16.21;69.71;102028.44;4951616;28;20030;-89
2022/06/10 05:38:04;;;;;;;7.82;2.90;;;;;;;16.22;70.01;102021.28;4969796;28;20030;-90
2022/06/10 05:40:31;;;;;;;10.00;2.65;;;;;;;16.24;69.94;102020.28;4945926;28;20085;-90
2022/06/10 05:42:57;;;;;;;7.60;2.58;;;;;;;16.25;70.17;102022.03;4968951;28;20027;-90
2022/06/10 05:45:23;;;;;;;8.23;2.90;;;;;;;16.33;69.61;102025.22;4966836;28;20636;-90
2022/06/10 05:47:56;;;;;;;9.50;2.70;;;;;;;16.30;69.53;102025.34;4969969;28;20037;-89
2022/06/10 05:50:27;;;;;;;6.63;2.40;;;;;;;16.44;69.71;102022.06;4949551;28;20050;-90
2022/06/10 05:52:53;;;;;;;6.30;2.42;;;;;;;16.65;68.77;102030.88;4944627;28;20066;-91
2022/06/10 05:55:20;;;;;;;10.40;2.50;;;;;;;16.69;68.83;102028.91;4971422;28;20485;-89
2022/06/10 05:57:46;;;;;;;9.85;2.38;;;;;;;16.71;68.62;102024.38;4953206;28;20030;-90
2022/06/10 06:00:18;;;;;;;8.82;2.35;;;;;;;16.79;68.84;102033.81;4967008;28;20032;-89
2022/06/10 06:02:43;;;;;;;;;;;;;;;16.99;68.02;102032.84;4950271;28;20123;-90
2022/06/10 06:05:10;;;;;;;7.90;2.70;;;;;;;16.92;68.34;102025.19;4943929;28;20037;-90
2022/06/10 06:07:38;;;;;;;8.00;2.20;;;;;;;16.96;68.54;102008.06;4952161;28;20554;-90
2022/06/10 06:10:05;;;;;;;10.43;2.30;;;;;;;17.22;68.26;102037.09;4944234;28;20035;-91
2022/06/10 06:12:30;;;;;;;6.88;2.22;;;;;;;17.36;68.09;102030.19;4964981;28;20065;-89
2022/06/10 06:14:56;;;;;;;7.22;2.25;;;;;;;17.50;67.35;102033.03;4965177;28;20035;-90
2022/06/10 06:17:22;;;;;;;6.80;2.00;;;;;;;17.54;66.56;102034.63;4952015;28;20125;-90
2022/06/10 06:19:48;;;;;;;4.35;2.08;;;;;;;17.60;66.59;102043.19;4946265;28;20045;-90
2022/06/10 06:22:13;;;;;;;9.88;2.30;;;;;;;17.48;67.35;102033.09;4965431;28;20196;-89
2022/06/10 06:24:39;;;;;;;5.10;1.75;;;;;;;17.41;66.83;102037.03;4966916;28;20038;-89
2022/06/10 06:27:06;;;;;;;6.60;2.03;;;;;;;17.45;66.35;102040.44;4948919;28;20034;-89
2022/06/10 06:29:31;;;;;;;5.28;1.70;;;;;;;17.46;66.40;102039.47;4963127;28;20062;-91
2022/06/10 06:31:57;;;;;;;4.88;1.73;;;;;;;17.51;65.67;102043.66;4948303;28;20118;-90
2022/06/10 06:34:25;;;;;;;8.32;2.50;;;;;;;17.54;66.62;102038.16;4947240;28;20027;-90
2022/06/10 06:36:54;;;;;;;5.85;2.22;;;;;;;17.65;66.24;102037.63;4949835;28;20027;-90
2022/06/10 06:39:21;;;;;;;8.23;1.95;;;;;;;17.67;65.08;102043.72;4964951;28;20121;-89
2022/06/10 06:41:46;;;;;;;8.38;2.05;;;;;;;17.79;65.83;102036.94;4951999;28;20037;-89
2022/06/10 06:44:13;;;;;;;6.88;2.00;;;;;;;17.87;65.78;102042.78;4971907;28;20030;-89
2022/06/10 06:46:40;;;;;;;4.28;1.80;;;;;;;17.95;64.54;102051.28;4969157;28;20106;-89
2022/06/10 06:49:08;;;;;;;7.47;1.73;;;;;;;18.09;63.85;102058.56;4966907;28;20026;-90
2022/06/10 06:51:35;;;;;;;4.35;1.50;;;;;;;18.12;64.38;102054.88;4965311;28;20084;-89
2022/06/10 06:54:01;;;;;;;4.75;1.90;;;;;;;18.23;64.33;102061.41;4953385;28;20474;-89
2022/06/10 06:56:28;;;;;;;4.50;1.88;;;;;;;18.15;64.05;102054.72;4951930;28;20558;-88
2022/06/10 06:58:53;;;;;;;6.32;1.65;;;;;;;18.20;63.37;102061.56;4966231;28;20027;-88
2022/06/10 07:01:18;;;;;;;8.73;1.50;;;;;;;18.16;63.41;102064.47;4967322;28;20430;-88
2022/06/10 07:03:44;;;;;;;6.28;1.50;;;;;;;18.24;63.41;102067.63;4965171;28;20035;-88
2022/06/10 07:06:10;;;;;;;4.60;1.38;;;;;;;18.29;63.03;102069.09;4951696;28;20022;-88
2022/06/10 07:08:36;;;;;;;6.57;1.52;;;;;;;18.35;63.38;102063.41;4950754;28;20031;-88
2022/06/10 07:11:03;;;;;;;5.72;1.73;;;;;;;18.42;64.02;102069.31;4959737;28;20038;-89
2022/06/10 07:13:29;;;;;;;6.32;1.65;;;;;;;18.45;62.28;102062.91;4962355;28;20113;-90
2022/06/10 07:15:56;;;;;;;3.60;1.50;;;;;;;18.47;63.02;102071.75;4967619;28;20105;-89
2022/06/10 07:18:21;;;;;;;3.65;1.70;;;;;;;18.52;62.90;102062.53;4946048;28;20081;-89
2022/06/10 07:20:46;;;;;;;3.83;1.38;;;;;;;18.63;62.09;102058.38;4947090;28;20470;-89
2022/06/10 07:23:12;;;;;;;4.50;1.50;;;;;;;18.75;60.84;102055.09;4962868;28;20031;-90
2022/06/10 07:25:37;;;;;;;6.72;1.67;;;;;;;18.82;61.64;102054.63;4950114;28;20506;-89
2022/06/10 07:28:03;;;;;;;5.78;1.90;;;;;;;18.99;60.89;102058.22;4967745;28;20050;-89
2022/06/10 07:30:32;;;;;;;5.72;1.63;;;;;;;19.07;60.19;102055.94;4966654;28;20097;-89
2022/06/10 07:32:58;;;;;;;9.77;1.70;;;;;;;19.18;59.84;102069.63;4950035;28;20493;-90
2022/06/10 07:35:23;;;;;;;8.55;1.60;;;;;;;19.26;60.21;102075.41;4951614;28;20033;-90
2022/06/10 07:37:50;;;;;;;5.78;1.30;;;;;;;19.42;60.24;102072.72;4966442;28;20034;-89
2022/06/10 07:43:06;;;;;;;5.95;1.50;;;;;;;19.47;58.26;102067.94;4965726;28;20042;-90
2022/06/10 07:45:32;;;;;;;7.88;1.55;;;;;;;19.60;59.54;102066.31;4942807;28;20035;-89
2022/06/10 07:47:58;;;;;;;5.78;1.40;;;;;;;19.56;59.17;102072.78;4967888;28;20019;-89
2022/06/10 07:50:23;;;;;;;2.97;1.30;;;;;;;19.47;60.50;102065.25;4965597;28;20082;-89
2022/06/10 07:52:52;;;;;;;5.45;1.58;;;;;;;19.50;59.51;102069.59;4950837;28;20085;-89
2022/06/10 07:55:18;;;;;;;9.25;1.50;;;;;;;19.42;59.07;102074.53;4968361;28;20038;-89
2022/06/10 07:57:44;;;;;;;4.95;1.40;;;;;;;19.39;59.12;102059.47;4949861;28;20054;-89
2022/06/10 08:00:11;;;;;;;3.33;1.15;;;;;;;19.31;58.72;102067.09;4947631;28;20033;-89
2022/06/10 08:02:37;;;;;;;7.22;1.38;;;;;;;19.27;59.10;102053.00;4967771;28;20158;-89
2022/06/10 08:05:04;;;;;;;7.47;1.60;;;;;;;19.38;60.38;102055.91;4965585;28;20035;-90
2022/06/10 08:07:30;;;;;;;6.18;2.15;;;;;;;19.49;60.55;102068.72;4964338;28;20470;-89
2022/06/10 08:09:55;;;;;;;6.32;1.35;;;;;;;19.59;59.71;102059.19;4951309;28;20019;-91
2022/06/10 08:12:21;;;;;;;4.65;1.70;;;;;;;19.74;59.41;102064.63;4964789;28;20117;-90
2022/06/10 08:14:47;;;;;;;5.20;1.48;;;;;;;19.86;59.38;102064.78;4967086;28;20033;-90
2022/06/10 08:17:12;;;;;;;4.80;1.17;;;;;;;19.94;57.69;102063.44;4943931;28;20434;-89
2022/06/10 08:19:39;;;;;;;4.38;1.40;;;;;;;20.06;57.49;102076.13;4962223;28;20628;-90
2022/06/10 08:22:47;;;;;;;3.75;1.30;;;;;;;20.17;57.63;102059.38;4963045;28;20119;-91
2022/06/10 08:24:53;;;;;;;3.80;1.30;;;;;;;20.29;57.00;102069.38;4958609;28;20050;-90
2022/06/10 08:27:19;;;;;;;2.58;1.27;;;;;;;20.51;57.08;102068.91;4948206;28;20031;-91
2022/06/10 08:29:44;;;;;;;8.75;1.50;;;;;;;20.55;55.90;102065.94;4950661;28;20047;-89
2022/06/10 08:32:10;;;;;;;7.38;1.70;;;;;;;20.46;54.10;102065.63;4972194;28;20033;-91
2022/06/10 08:34:36;;;;;;;4.35;1.52;;;;;;;20.44;55.13;102067.53;4956097;28;20302;-90
2022/06/10 08:37:02;;;;;;;3.90;1.50;;;;;;;20.48;55.52;102071.81;4948740;28;20022;-91
2022/06/10 08:39:28;;;;;;;3.67;1.23;;;;;;;20.52;54.93;102076.03;4952536;28;20586;-89
2022/06/10 08:42:07;;;;;;;6.25;1.63;;;;;;;20.45;54.60;102071.94;4948145;28;20383;-89
2022/06/10 08:44:56;;;;;;;3.90;1.30;;;;;;;20.61;55.57;102072.75;4966796;28;20383;-91
2022/06/10 08:47:42;;;;;;;6.68;1.80;;;;;;;20.67;55.82;102072.38;4958400;28;20031;-90
2022/06/10 08:50:17;;;;;;;7.82;2.17;;;;;;;20.67;54.27;102067.00;4955602;28;20078;-90
2022/06/10 08:53:05;;;;;;;7.25;1.60;;;;;;;20.68;55.42;102066.03;4950043;28;20129;-91
2022/06/10 08:55:39;;;;;;;7.78;1.90;;;;;;;20.71;53.95;102065.00;4968505;28;20101;-90
2022/06/10 08:58:15;;;;;;;7.00;2.00;;;;;;;20.67;54.42;102056.25;4970366;28;20105;-90
2022/06/10 09:00:43;;;;;;;12.23;2.33;;;;;;;20.87;54.54;102050.47;4945726;28;20035;-90
2022/06/10 09:03:17;;;;;;;7.25;1.83;;;;;;;21.51;53.06;102058.88;4948321;28;20031;-90
2022/06/10 09:05:49;;;;;;;10.38;1.95;;;;;;;21.95;53.23;102054.13;4969171;28;20027;-89
2022/06/10 09:08:37;;;;;;;7.40;2.13;;;;;;;22.48;51.48;102049.53;4968167;28;20577;-90
2022/06/10 09:11:28;;;;;;;7.72;2.03;;;;;;;23.16;49.77;102060.72;4968596;28;20145;-90
2022/06/10 09:14:00;;;;;;;7.23;1.83;;;;;;;23.36;48.57;102051.16;4949237;28;20060;-89
2022/06/10 09:16:44;;;;;;;;;;;;;;;23.56;50.09;102065.00;4963908;28;20545;-88
2022/06/10 09:19:40;;;;;;;6.78;1.67;;;;;;;23.54;47.75;102061.53;4967746;28;20404;-90
2022/06/10 09:22:08;;;;;;;5.75;1.95;;;;;;;23.12;48.09;102069.16;4969415;28;20085;-90
2022/06/10 09:24:40;;;;;;;7.97;2.20;;;;;;;22.96;49.35;102063.19;4965813;28;20550;-90
2022/06/10 09:27:08;;;;;;;;;;;;;;;23.24;49.60;102070.97;4951376;28;20042;-89
2022/06/10 09:29:37;;;;;;;6.90;1.80;;;;;;;23.63;49.36;102058.13;4967895;28;20367;-89
2022/06/10 09:32:24;;;;;;;6.90;2.10;;;;;;;23.92;48.81;102058.63;4950500;28;20018;-89
2022/06/10 09:35:51;;;;;;;6.03;2.10;;;;;;;23.97;47.71;102055.56;4970038;28;20083;-89
2022/06/10 09:38:22;;;;;;;8.15;2.20;;;;;;;23.81;47.58;102055.91;4893153;29;20508;-87
2022/06/10 09:41:33;;;;;;;9.68;2.33;;;;;;;24.01;47.47;102057.91;4940832;28;20062;-89
2022/06/10 09:44:07;;;;;;;7.20;2.33;;;;;;;24.04;48.01;102054.97;4908507;29;20028;-89
2022/06/10 09:46:46;;;;;;;6.03;2.25;;;;;;;23.83;48.07;102052.13;4938417;28;20073;-89
2022/06/10 09:49:35;;;;;;;5.30;2.47;;;;;;;24.01;48.11;102062.47;4966394;28;20084;-90
2022/06/10 09:52:17;;;;;;;9.13;2.67;;;;;;;23.79;48.15;102064.13;4952869;28;20043;-89
2022/06/10 09:54:48;;;;;;;8.77;2.45;;;;;;;23.63;48.02;102053.59;4972119;28;20022;-89
2022/06/10 09:57:47;;;;;;;11.18;3.10;;;;;;;23.52;48.86;102060.81;4969135;28;20061;-91
2022/06/10 10:00:36;;;;;;;6.90;2.47;;;;;;;23.31;49.78;102074.06;4966018;28;20027;-90
2022/06/10 10:03:24;;;;;;;9.43;2.63;;;;;;;23.40;49.77;102066.13;4948542;28;20037;-89
2022/06/10 10:06:11;;;;;;;9.63;1.88;;;;;;;23.64;49.99;102074.28;4966969;28;20490;-91
2022/06/10 10:08:51;;;;;;;7.07;2.72;;;;;;;23.90;48.56;102069.56;4964747;28;20089;-90
2022/06/10 10:11:23;;;;;;;10.02;2.90;;;;;;;23.85;48.53;102074.47;4959922;28;20038;-90
2022/06/10 10:14:00;;;;;;;8.00;2.90;;;;;;;24.16;48.62;102072.09;4966417;28;20030;-89
2022/06/10 10:17:00;;;;;;;8.65;3.03;;;;;;;24.36;49.77;102060.59;4966800;28;20497;-89
2022/06/10 10:19:56;;;;;;;10.90;3.22;;;;;;;24.44;48.05;102068.13;4956118;28;20037;-91
2022/06/10 10:22:53;;;;;;;13.60;3.10;;;;;;;24.29;48.25;102063.88;4952284;28;20033;-90
2022/06/10 10:25:23;;;;;;;8.57;3.22;;;;;;;24.01;47.76;102076.81;4941417;28;20490;-90
2022/06/10 10:27:49;;;;;;;10.48;2.92;;;;;;;23.89;48.70;102062.44;4952652;28;20043;-90
2022/06/10 10:30:27;;;;;;;7.10;3.15;;;;;;;23.65;48.89;102058.94;4970456;28;20031;-91
2022/06/10 10:33:02;;;;;;;9.50;3.03;;;;;;;23.13;50.67;102071.75;4968058;28;20486;-90
2022/06/10 10:35:38;;;;;;;9.15;2.88;;;;;;;22.90;51.30;102051.88;4970850;28;20035;-90
2022/06/10 10:38:08;;;;;;;10.80;2.88;;;;;;;23.36;51.69;102058.38;4948063;28;20080;-89
2022/06/10 10:40:47;;;;;;;8.68;3.22;;;;;;;23.80;49.87;102065.00;4950618;28;20050;-93
2022/06/10 10:43:18;;;;;;;11.90;3.00;;;;;;;24.09;49.48;102060.03;4951720;28;20034;-93
2022/06/10 10:46:00;;;;;;;9.35;3.25;;;;;;;24.45;48.79;102060.84;4950810;28;20035;-91
2022/06/10 10:48:27;;;;;;;;;;;;;;;24.57;48.33;102046.34;4962592;28;20614;-91
2022/06/10 10:51:00;;;;;;;9.95;3.83;;;;;;;24.82;48.10;102051.50;4949932;28;20432;-92
2022/06/10 10:53:38;;;;;;;10.35;3.03;;;;;;;24.57;47.72;102051.75;4961137;28;20077;-93
2022/06/10 10:56:05;;;;;;;10.73;3.25;;;;;;;24.37;49.04;102050.66;4961413;28;20522;-90
2022/06/10 10:58:35;;;;;;;8.93;3.88;;;;;;;24.13;48.20;102046.16;4947230;28;20477;-89
2022/06/10 11:01:43;;;;;;;6.55;3.20;;;;;;;24.10;48.88;102050.94;4963171;28;20016;-89
2022/06/10 11:03:59;;;;;;;6.20;3.58;;;;;;;24.22;48.94;102036.47;4970389;28;20393;-88
2022/06/10 11:06:26;;;;;;;14.15;4.05;;;;;;;24.35;48.17;102053.44;4947636;28;20023;-89
2022/06/10 11:09:03;;;;;;;8.50;3.58;;;;;;;24.13;48.86;102042.59;4969664;28;20038;-89
2022/06/10 11:11:31;;;;;;;9.45;3.38;;;;;;;23.86;50.35;102049.16;4961609;28;20062;-88
2022/06/10 11:14:00;;;;;;;9.45;3.80;;;;;;;23.98;48.87;102049.22;4968185;28;20553;-89
2022/06/10 11:16:31;;;;;;;8.82;4.00;;;;;;;24.06;49.41;102058.44;4952732;28;20026;-88
2022/06/10 11:19:14;;;;;;;10.90;4.20;;;;;;;24.38;49.64;102058.63;4969412;28;20038;-90
2022/06/10 11:21:54;;;;;;;8.93;3.63;;;;;;;24.45;49.48;102042.78;4969290;28;20042;-88
2022/06/10 11:24:28;;;;;;;11.10;3.63;;;;;;;24.53;48.95;102040.34;4952728;28;20534;-88
2022/06/10 11:26:58;;;;;;;9.43;3.45;;;;;;;25.07;48.19;102050.38;4970776;28;20522;-89
2022/06/10 11:29:24;;;;;;;8.00;3.35;;;;;;;25.40;47.10;102045.84;4968234;28;20047;-89
2022/06/10 11:32:01;;;;;;;8.43;4.07;;;;;;;26.23;45.13;102049.63;4969305;28;20543;-89
2022/06/10 11:34:33;;;;;;;9.13;3.10;;;;;;;26.36;44.78;102053.84;4951319;28;20445;-89
2022/06/10 11:36:59;;;;;;;6.55;3.22;;;;;;;25.97;45.20;102041.03;4952267;28;20038;-88
2022/06/10 11:39:33;;;;;;;5.53;3.05;;;;;;;25.88;46.13;102045.41;4968180;28;20034;-88
2022/06/10 11:42:07;;;;;;;10.27;3.80;;;;;;;25.91;44.30;102039.72;4961472;28;20465;-89
2022/06/10 11:44:45;;;;;;;6.63;3.50;;;;;;;25.58;46.40;102035.31;4968721;28;20450;-89
2022/06/10 11:47:18;;;;;;;10.57;3.42;;;;;;;25.62;45.21;102034.94;4961635;28;20037;-88
2022/06/10 11:49:51;;;;;;;7.78;3.22;;;;;;;25.61;46.55;102035.94;4949881;28;20034;-88
2022/06/10 11:52:37;;;;;;;7.75;3.60;;;;;;;25.55;47.78;102030.16;4949386;28;20501;-89